Time;durP1;ratioP1;P1;durP2;ratioP2;P2;SDS_P1;SDS_P2;PMS_P1;PMS_P2;Temp;Humidity;BMP_temperature;BMP_pressure;BME280_temperature;BME280_humidity;BME280_pressure;Samples;Min_cycle;Max_cycle;Signal;HPM_P1;HPM_P2
2022/06/19 00:00:00;;;;;;;9.40;6.43;;;;;;;;;;5071156;28;25313;-46
2022/06/19 00:02:26;;;;;;;8.63;6.80;;;;;;;;;;5064606;28;25247;-46
2022/06/19 00:04:53;;;;;;;9.60;7.00;;;;;;;;;;5067566;28;24995;-46
2022/06/19 00:07:19;;;;;;;8.07;6.70;;;;;;;;;;5070692;28;24438;-46
2022/06/19 00:09:44;;;;;;;8.40;7.00;;;;;;;;;;5065816;28;24541;-46
2022/06/19 00:12:09;;;;;;;8.07;7.13;;;;;;;;;;5060025;28;24821;-46
2022/06/19 00:14:34;;;;;;;8.90;6.60;;;;;;;;;;5065731;28;24468;-46
2022/06/19 00:17:00;;;;;;;8.70;7.60;;;;;;;;;;5070116;28;24446;-46
2022/06/19 00:19:26;;;;;;;11.25;7.50;;;;;;;;;;5065609;28;24434;-47
2022/06/19 00:21:51;;;;;;;10.10;7.40;;;;;;;;;;5065375;28;24785;-46
2022/06/19 00:24:16;;;;;;;7.80;6.80;;;;;;;;;;5065771;28;24437;-46
2022/06/19 00:26:41;;;;;;;8.07;6.35;;;;;;;;;;5069969;28;24983;-47
2022/06/19 00:29:06;;;;;;;8.73;6.90;;;;;;;;;;5071720;28;24430;-46
2022/06/19 00:31:31;;;;;;;10.63;7.20;;;;;;;;;;5061257;28;24987;-46
2022/06/19 00:33:56;;;;;;;7.85;6.70;;;;;;;;;;5064996;28;24472;-46
2022/06/19 00:36:25;;;;;;;10.87;7.10;;;;;;;;;;5068224;28;24494;-46
2022/06/19 00:38:50;;;;;;;8.15;6.93;;;;;;;;;;5069974;28;24415;-45
2022/06/19 00:41:15;;;;;;;9.75;7.00;;;;;;;;;;5064320;28;24998;-46
2022/06/19 00:43:53;;;;;;;7.57;6.80;;;;;;;;;;5076062;28;24422;-46
2022/06/19 00:46:37;;;;;;;9.00;6.85;;;;;;;;;;5065989;28;24859;-46
2022/06/19 00:49:03;;;;;;;7.38;6.10;;;;;;;;;;5055504;28;24426;-45
2022/06/19 00:51:29;;;;;;;10.40;7.28;;;;;;;;;;5068070;28;24523;-46
2022/06/19 00:53:54;;;;;;;9.77;6.68;;;;;;;;;;5066075;28;24422;-45
2022/06/19 00:56:20;;;;;;;7.68;6.40;;;;;;;;;;5068177;28;24525;-45
2022/06/19 00:58:46;;;;;;;10.13;6.03;;;;;;;;;;5066623;28;24454;-45
2022/06/19 01:01:13;;;;;;;8.30;6.40;;;;;;;;;;5068579;28;25059;-46
2022/06/19 01:03:49;;;;;;;8.88;6.07;;;;;;;;;;5080857;28;24826;-46
2022/06/19 01:06:14;;;;;;;9.70;6.30;;;;;;;;;;5065603;28;24434;-45
2022/06/19 01:08:40;;;;;;;8.30;6.20;;;;;;;;;;5069344;28;24434;-45
2022/06/19 01:11:05;;;;;;;9.07;6.15;;;;;;;;;;5071233;28;24431;-47
2022/06/19 01:13:31;;;;;;;10.40;6.87;;;;;;;;;;5068197;28;24431;-45
2022/06/19 01:15:57;;;;;;;8.10;7.30;;;;;;;;;;5066981;28;24418;-46
2022/06/19 01:18:22;;;;;;;8.67;6.90;;;;;;;;;;5064309;28;24530;-45
2022/06/19 01:20:50;;;;;;;8.82;6.13;;;;;;;;;;5066420;28;24621;-46
2022/06/19 01:23:15;;;;;;;10.88;6.53;;;;;;;;;;5065750;28;24425;-46
2022/06/19 01:25:41;;;;;;;12.40;6.68;;;;;;;;;;5074143;28;24414;-47
2022/06/19 01:30:53;;;;;;;8.43;6.40;;;;;;;;;;5072797;28;24512;-47
2022/06/19 01:33:33;;;;;;;8.07;6.10;;;;;;;;;;5067945;28;24521;-46
2022/06/19 01:35:59;;;;;;;7.80;6.05;;;;;;;;;;5059554;28;24503;-45
2022/06/19 01:38:26;;;;;;;7.90;5.80;;;;;;;;;;5069313;28;24522;-46
2022/06/19 01:40:52;;;;;;;9.60;6.30;;;;;;;;;;5066864;28;24430;-46
2022/06/19 01:43:18;;;;;;;9.55;6.20;;;;;;;;;;5064997;28;25002;-47
2022/06/19 01:45:45;;;;;;;9.67;6.17;;;;;;;;;;5070487;28;24456;-46
2022/06/19 01:48:10;;;;;;;10.60;6.45;;;;;;;;;;5066716;28;24441;-45
2022/06/19 01:50:36;;;;;;;8.57;6.00;;;;;;;;;;5073100;28;24517;-45
2022/06/19 01:53:08;;;;;;;11.57;6.90;;;;;;;;;;5065949;28;24426;-45
2022/06/19 01:55:34;;;;;;;9.52;6.20;;;;;;;;;;5066986;28;24446;-45
2022/06/19 01:58:00;;;;;;;9.70;6.27;;;;;;;;;;5066479;28;24458;-45
2022/06/19 02:00:27;;;;;;;10.98;6.00;;;;;;;;;;5067991;28;25089;-46
2022/06/19 02:02:55;;;;;;;9.27;6.57;;;;;;;;;;5066022;28;24552;-46
2022/06/19 02:05:20;;;;;;;9.55;6.60;;;;;;;;;;5066374;28;24425;-46
2022/06/19 02:07:46;;;;;;;6.27;5.40;;;;;;;;;;5069219;28;24430;-46
2022/06/19 02:10:11;;;;;;;10.47;6.60;;;;;;;;;;5070838;28;24472;-46
2022/06/19 02:12:36;;;;;;;8.70;6.30;;;;;;;;;;5068621;28;24786;-46
2022/06/19 02:15:04;;;;;;;7.40;5.90;;;;;;;;;;5066968;28;24809;-46
2022/06/19 02:17:42;;;;;;;9.07;6.20;;;;;;;;;;5066167;28;24484;-46
2022/06/19 02:20:09;;;;;;;9.00;6.20;;;;;;;;;;5068505;28;24469;-46
2022/06/19 02:22:34;;;;;;;8.15;6.20;;;;;;;;;;5076985;28;24434;-46
2022/06/19 02:25:00;;;;;;;6.82;5.80;;;;;;;;;;5063163;28;24421;-46
2022/06/19 02:27:26;;;;;;;9.00;6.32;;;;;;;;;;5064737;28;24492;-46
2022/06/19 02:29:51;;;;;;;9.40;5.90;;;;;;;;;;5065100;28;24480;-46
2022/06/19 02:32:19;;;;;;;9.70;6.45;;;;;;;;;;5071572;28;24507;-46
2022/06/19 02:34:44;;;;;;;7.72;5.70;;;;;;;;;;5073172;28;24465;-46
2022/06/19 02:37:14;;;;;;;9.03;6.20;;;;;;;;;;5076720;28;24985;-46
2022/06/19 02:39:48;;;;;;;11.27;6.83;;;;;;;;;;5065117;28;24423;-45
2022/06/19 02:42:19;;;;;;;9.50;6.10;;;;;;;;;;5072229;28;24429;-46
2022/06/19 02:44:44;;;;;;;9.95;6.40;;;;;;;;;;5061500;28;24511;-45
2022/06/19 02:47:09;;;;;;;7.88;6.20;;;;;;;;;;5071774;28;24874;-45
2022/06/19 02:49:35;;;;;;;7.87;5.90;;;;;;;;;;5062810;28;24419;-46
2022/06/19 02:52:01;;;;;;;8.10;6.00;;;;;;;;;;5070206;28;24513;-46
2022/06/19 02:54:27;;;;;;;7.72;5.80;;;;;;;;;;5053664;28;24557;-45
2022/06/19 02:56:52;;;;;;;8.30;5.97;;;;;;;;;;5065365;28;24484;-46
2022/06/19 02:59:17;;;;;;;11.63;5.93;;;;;;;;;;5064234;28;24430;-46
2022/06/19 03:01:42;;;;;;;7.23;5.40;;;;;;;;;;5066049;28;24434;-46
2022/06/19 03:04:14;;;;;;;8.00;6.00;;;;;;;;;;5059443;28;25008;-46
2022/06/19 03:06:39;;;;;;;11.57;5.88;;;;;;;;;;5064344;28;24619;-46
2022/06/19 03:09:04;;;;;;;6.88;5.50;;;;;;;;;;5068185;28;24522;-49
2022/06/19 03:11:29;;;;;;;9.48;6.10;;;;;;;;;;5070742;28;24523;-46
2022/06/19 03:13:55;;;;;;;7.38;5.60;;;;;;;;;;5067914;28;25003;-46
2022/06/19 03:16:20;;;;;;;8.35;5.53;;;;;;;;;;5070572;28;24502;-45
2022/06/19 03:18:45;;;;;;;7.70;5.90;;;;;;;;;;5068505;28;24508;-45
2022/06/19 03:21:10;;;;;;;6.50;5.80;;;;;;;;;;5076025;28;24435;-45
2022/06/19 03:23:36;;;;;;;8.75;6.18;;;;;;;;;;5066445;28;25182;-46
2022/06/19 03:26:01;;;;;;;10.37;5.93;;;;;;;;;;5064219;28;24433;-45
2022/06/19 03:28:27;;;;;;;7.40;5.70;;;;;;;;;;5053563;28;24492;-45
2022/06/19 03:30:55;;;;;;;7.57;5.97;;;;;;;;;;5066208;28;24426;-45
2022/06/19 03:33:21;;;;;;;10.27;5.68;;;;;;;;;;5059480;28;24431;-45
2022/06/19 03:35:46;;;;;;;8.85;5.82;;;;;;;;;;5066055;28;24491;-45
2022/06/19 03:38:12;;;;;;;8.30;5.80;;;;;;;;;;5053459;28;24503;-46
2022/06/19 03:40:37;;;;;;;8.45;5.65;;;;;;;;;;5063656;28;24449;-45
2022/06/19 03:43:02;;;;;;;5.80;5.20;;;;;;;;;;5062961;28;24785;-45
2022/06/19 03:45:27;;;;;;;6.60;6.00;;;;;;;;;;5064555;28;24446;-46
2022/06/19 03:47:52;;;;;;;6.20;5.60;;;;;;;;;;5057784;28;24484;-45
2022/06/19 03:50:18;;;;;;;6.75;5.65;;;;;;;;;;5065678;28;24529;-46
2022/06/19 03:52:43;;;;;;;6.70;6.00;;;;;;;;;;5054927;28;24429;-45
2022/06/19 03:55:08;;;;;;;7.35;6.28;;;;;;;;;;5065502;28;24895;-45
2022/06/19 03:57:33;;;;;;;7.87;5.57;;;;;;;;;;5062719;28;24415;-45
2022/06/19 03:59:58;;;;;;;7.40;5.30;;;;;;;;;;5066908;28;24414;-45
2022/06/19 04:02:24;;;;;;;7.10;5.47;;;;;;;;;;5054667;28;25111;-46
2022/06/19 04:04:49;;;;;;;6.63;4.95;;;;;;;;;;5071516;28;24419;-46
2022/06/19 04:07:15;;;;;;;9.93;5.60;;;;;;;;;;5057128;28;24439;-46
2022/06/19 04:09:41;;;;;;;8.00;5.60;;;;;;;;;;5065853;28;24419;-46
2022/06/19 04:12:06;;;;;;;6.43;5.10;;;;;;;;;;5067038;28;24441;-46
2022/06/19 04:14:31;;;;;;;7.30;5.40;;;;;;;;;;5064623;28;25121;-46
2022/06/19 04:16:56;;;;;;;6.70;5.50;;;;;;;;;;5072272;28;24437;-46
2022/06/19 04:19:21;;;;;;;7.45;6.28;;;;;;;;;;5067205;28;24777;-46
2022/06/19 04:21:47;;;;;;;7.90;5.88;;;;;;;;;;5065564;28;24450;-46
2022/06/19 04:24:14;;;;;;;6.43;5.83;;;;;;;;;;5068495;28;24710;-46
2022/06/19 04:26:40;;;;;;;5.60;5.10;;;;;;;;;;5062265;28;24449;-46
2022/06/19 04:29:06;;;;;;;5.97;4.83;;;;;;;;;;5065186;28;24419;-46
2022/06/19 04:31:31;;;;;;;5.80;5.10;;;;;;;;;;5077632;28;24974;-45
2022/06/19 04:33:56;;;;;;;5.50;4.87;;;;;;;;;;5073130;28;24419;-46
2022/06/19 04:36:24;;;;;;;7.70;5.70;;;;;;;;;;5071035;28;24465;-45
2022/06/19 04:38:50;;;;;;;8.07;5.22;;;;;;;;;;5069099;28;24493;-46
2022/06/19 04:41:17;;;;;;;6.43;5.22;;;;;;;;;;5064775;28;24798;-46
2022/06/19 04:43:42;;;;;;;6.67;5.10;;;;;;;;;;5060116;28;24430;-46
2022/06/19 04:46:07;;;;;;;7.50;5.28;;;;;;;;;;5068172;28;24483;-46
2022/06/19 04:48:33;;;;;;;8.57;5.20;;;;;;;;;;5068409;28;24437;-46
2022/06/19 04:50:59;;;;;;;6.67;5.10;;;;;;;;;;5064283;28;24462;-46
2022/06/19 04:53:24;;;;;;;8.07;4.97;;;;;;;;;;5064092;28;24853;-46
2022/06/19 04:55:49;;;;;;;6.63;5.70;;;;;;;;;;5069918;28;24433;-51
2022/06/19 04:58:14;;;;;;;7.68;5.60;;;;;;;;;;5067125;28;24519;-46
2022/06/19 05:00:40;;;;;;;6.50;5.17;;;;;;;;;;5064284;28;24545;-46
2022/06/19 05:03:05;;;;;;;6.32;5.50;;;;;;;;;;5065729;28;24441;-45
2022/06/19 05:05:30;;;;;;;6.15;5.00;;;;;;;;;;5063707;28;24532;-46
2022/06/19 05:07:55;;;;;;;7.03;5.67;;;;;;;;;;5065759;28;24988;-46
2022/06/19 05:10:20;;;;;;;7.00;5.53;;;;;;;;;;5066050;28;24501;-45
2022/06/19 05:12:46;;;;;;;8.90;6.32;;;;;;;;;;5069638;28;24454;-46
2022/06/19 05:15:11;;;;;;;8.00;5.70;;;;;;;;;;5073317;28;24422;-46
2022/06/19 05:17:36;;;;;;;7.70;5.33;;;;;;;;;;5068057;28;25177;-46
2022/06/19 05:20:02;;;;;;;6.80;5.90;;;;;;;;;;5076977;28;24453;-46
2022/06/19 05:22:28;;;;;;;6.30;5.70;;;;;;;;;;5066415;28;24475;-46
2022/06/19 05:24:53;;;;;;;6.50;5.90;;;;;;;;;;5066129;28;24770;-46
2022/06/19 05:27:18;;;;;;;6.90;6.20;;;;;;;;;;5066240;28;24508;-47
2022/06/19 05:29:43;;;;;;;9.68;6.50;;;;;;;;;;5071407;28;24465;-48
2022/06/19 05:32:08;;;;;;;8.80;6.80;;;;;;;;;;5066370;28;24539;-47
2022/06/19 05:34:34;;;;;;;9.10;6.80;;;;;;;;;;5063982;28;25017;-47
2022/06/19 05:37:00;;;;;;;7.63;6.32;;;;;;;;;;5056600;28;24605;-48
2022/06/19 05:39:25;;;;;;;8.32;6.80;;;;;;;;;;5059340;28;24517;-46
2022/06/19 05:41:52;;;;;;;8.40;6.60;;;;;;;;;;5065818;28;24832;-47
2022/06/19 05:44:17;;;;;;;7.13;6.00;;;;;;;;;;5059310;28;24508;-47
2022/06/19 05:46:42;;;;;;;7.83;6.43;;;;;;;;;;5069600;28;24499;-46
2022/06/19 05:49:08;;;;;;;6.57;5.97;;;;;;;;;;5063467;28;24410;-47
2022/06/19 05:51:34;;;;;;;7.70;6.60;;;;;;;;;;5065319;28;24533;-47
2022/06/19 05:53:59;;;;;;;7.00;6.40;;;;;;;;;;5064226;28;24514;-47
2022/06/19 05:56:25;;;;;;;6.50;5.90;;;;;;;;;;5054237;28;24528;-47
2022/06/19 05:58:50;;;;;;;6.80;6.20;;;;;;;;;;5064762;28;24513;-47
2022/06/19 06:01:16;;;;;;;6.73;6.00;;;;;;;;;;5063875;28;24480;-46
2022/06/19 06:03:42;;;;;;;6.30;5.70;;;;;;;;;;5064765;28;24521;-46
2022/06/19 06:06:09;;;;;;;7.50;6.20;;;;;;;;;;5064785;28;25146;-46
2022/06/19 06:08:35;;;;;;;7.90;6.10;;;;;;;;;;5061767;28;24794;-46
2022/06/19 06:11:01;;;;;;;6.60;6.00;;;;;;;;;;5065255;28;24999;-47
2022/06/19 06:13:29;;;;;;;6.87;6.20;;;;;;;;;;5058897;28;24432;-47
2022/06/19 06:15:54;;;;;;;7.20;5.70;;;;;;;;;;5056970;28;24414;-46
2022/06/19 06:18:19;;;;;;;6.45;5.85;;;;;;;;;;5065170;28;24785;-46
2022/06/19 06:20:44;;;;;;;6.90;6.20;;;;;;;;;;5064601;28;24431;-45
2022/06/19 06:23:10;;;;;;;6.67;6.07;;;;;;;;;;5068339;28;24438;-46
2022/06/19 06:25:37;;;;;;;6.22;5.70;;;;;;;;;;5060505;28;24747;-46
2022/06/19 06:28:02;;;;;;;6.90;6.10;;;;;;;;;;5065790;28;24439;-45
2022/06/19 06:30:27;;;;;;;6.68;6.07;;;;;;;;;;5060501;28;24496;-46
2022/06/19 06:32:52;;;;;;;7.10;6.10;;;;;;;;;;5062504;28;24429;-46
2022/06/19 06:35:17;;;;;;;6.90;6.30;;;;;;;;;;5064523;28;24431;-47
2022/06/19 06:37:42;;;;;;;7.60;5.83;;;;;;;;;;5064010;28;24988;-46
2022/06/19 06:40:08;;;;;;;6.50;5.90;;;;;;;;;;5066941;28;24431;-46
2022/06/19 06:42:34;;;;;;;6.55;6.00;;;;;;;;;;5069343;28;24456;-46
2022/06/19 06:44:59;;;;;;;6.47;5.87;;;;;;;;;;5063808;28;24434;-46
2022/06/19 06:47:24;;;;;;;6.50;5.90;;;;;;;;;;5066023;28;24456;-46
2022/06/19 06:49:50;;;;;;;6.43;5.93;;;;;;;;;;5058549;28;24518;-47
2022/06/19 06:52:15;;;;;;;8.15;6.03;;;;;;;;;;5067057;28;24456;-46
2022/06/19 06:54:41;;;;;;;6.90;6.00;;;;;;;;;;5066690;28;24399;-46
2022/06/19 06:57:06;;;;;;;7.90;5.80;;;;;;;;;;5067345;28;24411;-46
2022/06/19 06:59:31;;;;;;;5.60;5.20;;;;;;;;;;5065314;28;25007;-46
2022/06/19 07:01:57;;;;;;;6.60;5.47;;;;;;;;;;5067064;28;24391;-46
2022/06/19 07:04:22;;;;;;;7.80;5.90;;;;;;;;;;5063945;28;24981;-45
2022/06/19 07:06:47;;;;;;;6.50;5.90;;;;;;;;;;5065105;28;24425;-46
2022/06/19 07:09:12;;;;;;;7.33;5.30;;;;;;;;;;5065159;28;24426;-47
2022/06/19 07:11:39;;;;;;;6.28;5.55;;;;;;;;;;5063018;28;24407;-46
2022/06/19 07:14:05;;;;;;;5.90;5.30;;;;;;;;;;5064142;28;24492;-46
2022/06/19 07:16:30;;;;;;;5.50;4.80;;;;;;;;;;5066422;28;24442;-47
2022/06/19 07:18:55;;;;;;;9.73;4.73;;;;;;;;;;5066816;28;24745;-45
2022/06/19 07:21:21;;;;;;;6.03;4.68;;;;;;;;;;5065840;28;24423;-46
2022/06/19 07:23:46;;;;;;;5.40;3.88;;;;;;;;;;5065949;28;25035;-46
2022/06/19 07:26:12;;;;;;;7.57;4.20;;;;;;;;;;5066539;28;25150;-46
2022/06/19 07:28:38;;;;;;;6.90;4.60;;;;;;;;;;5066516;28;24389;-46
2022/06/19 07:31:03;;;;;;;5.87;3.80;;;;;;;;;;5066590;28;24486;-46
2022/06/19 07:33:29;;;;;;;6.87;4.30;;;;;;;;;;5065494;28;24407;-46
2022/06/19 07:35:54;;;;;;;7.05;3.80;;;;;;;;;;5066313;28;24401;-45
2022/06/19 07:38:19;;;;;;;8.55;4.13;;;;;;;;;;5069381;28;24431;-46
2022/06/19 07:40:44;;;;;;;5.25;3.60;;;;;;;;;;5068042;28;24479;-46
2022/06/19 07:43:09;;;;;;;7.17;3.80;;;;;;;;;;5068494;28;24437;-46
2022/06/19 07:45:35;;;;;;;4.83;3.70;;;;;;;;;;5068473;28;24833;-47
2022/06/19 07:50:46;;;;;;;8.00;4.03;;;;;;;;;;5070591;28;24936;-47
2022/06/19 07:53:11;;;;;;;8.05;3.85;;;;;;;;;;5070161;28;24445;-46
2022/06/19 07:55:39;;;;;;;10.60;4.22;;;;;;;;;;5068398;28;24419;-46
2022/06/19 07:58:04;;;;;;;9.57;4.00;;;;;;;;;;5069970;28;24403;-47
2022/06/19 08:00:31;;;;;;;6.30;3.70;;;;;;;;;;5055919;28;24418;-46
2022/06/19 08:02:56;;;;;;;4.80;3.60;;;;;;;;;;5049837;28;24560;-46
2022/06/19 08:05:23;;;;;;;12.07;3.70;;;;;;;;;;5066863;28;24430;-45
2022/06/19 08:07:50;;;;;;;8.63;4.28;;;;;;;;;;5069528;28;24421;-46
2022/06/19 08:10:17;;;;;;;12.55;4.28;;;;;;;;;;5070106;28;24402;-46
2022/06/19 08:12:43;;;;;;;5.35;3.80;;;;;;;;;;5063671;28;24517;-46
2022/06/19 08:15:08;;;;;;;7.80;3.90;;;;;;;;;;5052320;28;24909;-45
2022/06/19 08:17:33;;;;;;;7.10;3.90;;;;;;;;;;5069108;28;24382;-46
2022/06/19 08:19:59;;;;;;;7.37;3.70;;;;;;;;;;5068210;28;25216;-46
2022/06/19 08:22:24;;;;;;;9.40;4.10;;;;;;;;;;5072189;28;24773;-46
2022/06/19 08:24:49;;;;;;;9.67;4.40;;;;;;;;;;5069507;28;24537;-46
2022/06/19 08:27:15;;;;;;;8.23;4.35;;;;;;;;;;5069524;28;24793;-46
2022/06/19 08:29:40;;;;;;;8.30;4.45;;;;;;;;;;5069678;28;24476;-46
2022/06/19 08:32:05;;;;;;;4.67;3.70;;;;;;;;;;5067729;28;25021;-46
2022/06/19 08:34:30;;;;;;;8.60;4.50;;;;;;;;;;5069635;28;24766;-46
2022/06/19 08:36:56;;;;;;;11.57;4.40;;;;;;;;;;5069287;28;24465;-46
2022/06/19 08:39:22;;;;;;;12.30;4.90;;;;;;;;;;5069409;28;24501;-46
2022/06/19 08:41:57;;;;;;;9.20;4.80;;;;;;;;;;5067404;28;24401;-46
2022/06/19 08:44:30;;;;;;;8.82;4.40;;;;;;;;;;5061138;28;25048;-47
2022/06/19 08:47:02;;;;;;;10.75;4.68;;;;;;;;;;5067402;28;24442;-46
2022/06/19 08:49:38;;;;;;;9.50;4.47;;;;;;;;;;5065519;28;24419;-46
2022/06/19 08:52:32;;;;;;;6.80;4.40;;;;;;;;;;5063586;28;21197;-46
2022/06/19 08:55:15;;;;;;;12.35;4.97;;;;;;;;;;5066879;28;24801;-46
2022/06/19 08:57:54;;;;;;;10.47;4.23;;;;;;;;;;5069241;28;24486;-46
2022/06/19 09:00:23;;;;;;;8.57;4.72;;;;;;;;;;5069365;28;24399;-46
2022/06/19 09:03:07;;;;;;;8.25;4.60;;;;;;;;;;5068646;28;24415;-47
2022/06/19 09:05:47;;;;;;;7.85;4.63;;;;;;;;;;5067627;28;24530;-47
2022/06/19 09:08:12;;;;;;;6.43;4.65;;;;;;;;;;5068679;28;24418;-47
2022/06/19 09:10:49;;;;;;;6.72;4.97;;;;;;;;;;5069114;28;24406;-47
2022/06/19 09:13:32;;;;;;;7.65;4.90;;;;;;;;;;5068872;28;24391;-47
2022/06/19 09:16:10;;;;;;;9.73;5.20;;;;;;;;;;5066598;28;24411;-47
2022/06/19 09:18:54;;;;;;;6.22;5.00;;;;;;;;;;5068780;28;24463;-47
2022/06/19 09:21:28;;;;;;;6.43;4.97;;;;;;;;;;5068360;28;25183;-47
2022/06/19 09:24:03;;;;;;;9.00;5.03;;;;;;;;;;5068408;28;24489;-47
2022/06/19 09:26:34;;;;;;;9.05;5.05;;;;;;;;;;5066573;28;24430;-47
2022/06/19 09:29:09;;;;;;;6.77;5.10;;;;;;;;;;5068430;28;24391;-48
2022/06/19 09:31:37;;;;;;;7.43;5.03;;;;;;;;;;5068305;28;24395;-46
2022/06/19 09:34:16;;;;;;;9.00;5.50;;;;;;;;;;5068196;28;25010;-47
2022/06/19 09:36:57;;;;;;;7.82;5.60;;;;;;;;;;5066293;28;24980;-47
2022/06/19 09:39:34;;;;;;;9.35;5.60;;;;;;;;;;5068308;28;24418;-47
2022/06/19 09:42:21;;;;;;;8.05;5.60;;;;;;;;;;5068245;28;24406;-47
2022/06/19 09:44:51;;;;;;;8.32;5.88;;;;;;;;;;5066685;28;24560;-47
2022/06/19 09:47:24;;;;;;;8.80;5.22;;;;;;;;;;5066795;28;24492;-46
2022/06/19 09:49:52;;;;;;;7.17;5.30;;;;;;;;;;5067811;28;24465;-46
2022/06/19 09:52:19;;;;;;;9.10;5.10;;;;;;;;;;5068035;28;24941;-47
2022/06/19 09:54:49;;;;;;;5.78;5.18;;;;;;;;;;5067839;28;24422;-46
2022/06/19 09:57:52;;;;;;;6.88;5.30;;;;;;;;;;5067197;28;24418;-48
2022/06/19 10:00:24;;;;;;;8.45;4.90;;;;;;;;;;5002225;28;25237;-47
2022/06/19 10:02:52;;;;;;;10.02;5.50;;;;;;;;;;5004654;28;24404;-47
2022/06/19 10:05:24;;;;;;;6.57;4.70;;;;;;;;;;5027293;28;24411;-46
2022/06/19 10:07:53;;;;;;;7.15;4.70;;;;;;;;;;5055329;28;24512;-46
2022/06/19 10:10:23;;;;;;;7.20;4.80;;;;;;;;;;5064445;28;24449;-47
2022/06/19 10:12:51;;;;;;;9.43;4.60;;;;;;;;;;5061323;28;24447;-46
2022/06/19 10:15:19;;;;;;;6.93;4.70;;;;;;;;;;5047549;28;24400;-47
2022/06/19 10:17:50;;;;;;;8.05;4.75;;;;;;;;;;5047719;28;24438;-47
2022/06/19 10:20:18;;;;;;;6.57;4.60;;;;;;;;;;5047429;28;24797;-47
2022/06/19 10:23:00;;;;;;;9.73;5.03;;;;;;;;;;5062048;28;24430;-47
2022/06/19 10:25:28;;;;;;;6.95;4.82;;;;;;;;;;5067330;28;24403;-47
2022/06/19 10:28:02;;;;;;;9.03;4.90;;;;;;;;;;5067115;28;24518;-47
2022/06/19 10:30:31;;;;;;;9.85;4.75;;;;;;;;;;5067260;28;24840;-46
2022/06/19 10:33:05;;;;;;;7.03;5.07;;;;;;;;;;5065975;28;24761;-47
2022/06/19 10:35:35;;;;;;;6.47;4.23;;;;;;;;;;5067237;28;24395;-45
2022/06/19 10:38:18;;;;;;;7.35;4.60;;;;;;;;;;5067206;28;24756;-46
2022/06/19 10:40:50;;;;;;;4.73;4.20;;;;;;;;;;5067289;28;24418;-46
2022/06/19 10:43:26;;;;;;;7.72;4.32;;;;;;;;;;5063634;28;25077;-46
2022/06/19 10:45:54;;;;;;;6.78;4.07;;;;;;;;;;5066796;28;24476;-46
2022/06/19 10:48:27;;;;;;;7.82;4.47;;;;;;;;;;5067266;28;24442;-47
2022/06/19 10:51:11;;;;;;;8.88;4.60;;;;;;;;;;5066976;28;24952;-46
2022/06/19 10:53:36;;;;;;;8.95;4.47;;;;;;;;;;5066373;28;24872;-46
2022/06/19 10:56:20;;;;;;;10.65;4.75;;;;;;;;;;5065457;28;24596;-45
2022/06/19 10:58:48;;;;;;;7.70;4.35;;;;;;;;;;5067309;28;21283;-46
2022/06/19 11:04:06;;;;;;;8.07;4.82;;;;;;;;;;5066783;28;24437;-47
2022/06/19 11:04:07;;;;;;;7.85;4.47;;;;;;;;;;5066844;28;21567;-46
2022/06/19 11:06:51;;;;;;;10.40;4.90;;;;;;;;;;5066060;28;24491;-49
2022/06/19 11:09:42;;;;;;;9.57;4.40;;;;;;;;;;5067286;28;20761;-47
2022/06/19 11:12:15;;;;;;;10.23;4.70;;;;;;;;;;5063747;28;24402;-46
2022/06/19 11:14:46;;;;;;;7.80;4.80;;;;;;;;;;5066963;28;24917;-46
2022/06/19 11:17:35;;;;;;;10.38;4.20;;;;;;;;;;5065560;28;24438;-47
2022/06/19 11:20:19;;;;;;;9.23;4.13;;;;;;;;;;5058658;28;24438;-47
2022/06/19 11:22:46;;;;;;;8.05;4.30;;;;;;;;;;5058661;28;24436;-46
2022/06/19 11:25:23;;;;;;;6.63;3.72;;;;;;;;;;5064699;28;24434;-46
2022/06/19 11:27:53;;;;;;;11.52;4.35;;;;;;;;;;5064777;28;24527;-46
2022/06/19 11:30:38;;;;;;;10.20;3.70;;;;;;;;;;5060256;28;24529;-46
2022/06/19 11:33:06;;;;;;;9.98;4.20;;;;;;;;;;5059641;28;24514;-46
2022/06/19 11:35:36;;;;;;;8.60;4.30;;;;;;;;;;5062106;28;24425;-46
2022/06/19 11:38:01;;;;;;;6.07;4.00;;;;;;;;;;5062377;28;24992;-46
2022/06/19 11:40:29;;;;;;;10.73;4.37;;;;;;;;;;5063563;28;24414;-47
2022/06/19 11:42:57;;;;;;;8.48;4.60;;;;;;;;;;5063181;28;24402;-47
2022/06/19 11:45:24;;;;;;;11.30;4.30;;;;;;;;;;5062903;28;20758;-46
2022/06/19 11:47:53;;;;;;;10.97;4.40;;;;;;;;;;5069651;28;24441;-47
2022/06/19 11:50:24;;;;;;;7.15;4.40;;;;;;;;;;5072044;28;24434;-47
2022/06/19 11:52:54;;;;;;;11.57;4.65;;;;;;;;;;5062033;28;24564;-48
2022/06/19 11:55:22;;;;;;;9.38;4.40;;;;;;;;;;5058762;28;21487;-47
2022/06/19 11:57:49;;;;;;;8.52;4.00;;;;;;;;;;5062321;28;24514;-47
2022/06/19 12:00:22;;;;;;;10.70;4.30;;;;;;;;;;5064098;28;21299;-47
2022/06/19 12:02:53;;;;;;;8.93;4.40;;;;;;;;;;5052426;28;24446;-47
2022/06/19 12:05:39;;;;;;;9.70;4.40;;;;;;;;;;5061246;28;20901;-46
2022/06/19 12:08:07;;;;;;;10.18;4.32;;;;;;;;;;5058891;28;20851;-47
2022/06/19 12:10:34;;;;;;;6.53;3.75;;;;;;;;;;5065525;28;20757;-46
2022/06/19 12:13:00;;;;;;;7.95;3.45;;;;;;;;;;5062965;28;24552;-48
2022/06/19 12:15:27;;;;;;;10.55;4.80;;;;;;;;;;5060758;28;24435;-47
2022/06/19 12:17:55;;;;;;;7.40;4.00;;;;;;;;;;5064673;28;20748;-47
2022/06/19 12:20:23;;;;;;;8.90;4.00;;;;;;;;;;5077596;28;20772;-47
2022/06/19 12:23:09;;;;;;;9.85;4.22;;;;;;;;;;5074838;28;20776;-47
2022/06/19 12:25:46;;;;;;;10.57;4.30;;;;;;;;;;5062742;28;20765;-47
2022/06/19 12:28:25;;;;;;;9.40;4.18;;;;;;;;;;5059881;28;24427;-47
2022/06/19 12:31:11;;;;;;;6.57;4.25;;;;;;;;;;5066098;28;20820;-47
2022/06/19 12:33:40;;;;;;;6.50;3.90;;;;;;;;;;5074322;28;20748;-48
2022/06/19 12:36:06;;;;;;;5.90;3.50;;;;;;;;;;5066344;28;20760;-47
2022/06/19 12:38:34;;;;;;;9.48;3.92;;;;;;;;;;5068352;28;24454;-47
2022/06/19 12:41:13;;;;;;;10.73;4.30;;;;;;;;;;5065400;28;20748;-48
2022/06/19 12:43:38;;;;;;;10.40;4.30;;;;;;;;;;5076636;28;20746;-47
2022/06/19 12:46:08;;;;;;;8.73;4.10;;;;;;;;;;5060858;28;24451;-47
2022/06/19 12:48:46;;;;;;;7.82;4.13;;;;;;;;;;5065923;28;25122;-47
2022/06/19 12:51:26;;;;;;;8.10;3.90;;;;;;;;;;5070619;28;24444;-47
2022/06/19 12:54:17;;;;;;;7.75;4.18;;;;;;;;;;5082273;28;24426;-48
2022/06/19 12:56:59;;;;;;;9.43;4.10;;;;;;;;;;5045930;28;24439;-47
2022/06/19 12:59:48;;;;;;;9.38;3.90;;;;;;;;;;5083845;28;20799;-46
2022/06/19 13:02:19;;;;;;;7.63;3.90;;;;;;;;;;5077821;28;21165;-47
2022/06/19 13:04:50;;;;;;;11.38;5.10;;;;;;;;;;5076641;28;21149;-48
2022/06/19 13:07:22;;;;;;;9.55;5.30;;;;;;;;;;5066834;28;20769;-47
2022/06/19 13:09:47;;;;;;;9.10;4.45;;;;;;;;;;5070492;28;24955;-48
2022/06/19 13:12:20;;;;;;;11.65;4.35;;;;;;;;;;5078140;28;25033;-48
2022/06/19 13:14:45;;;;;;;9.10;4.40;;;;;;;;;;5075121;28;20755;-47
2022/06/19 13:17:25;;;;;;;10.82;4.22;;;;;;;;;;5078287;28;24430;-48
2022/06/19 13:19:56;;;;;;;8.43;4.28;;;;;;;;;;5070640;28;20757;-47
2022/06/19 13:22:40;;;;;;;9.55;4.18;;;;;;;;;;5064306;28;20826;-47
2022/06/19 13:25:08;;;;;;;9.00;3.90;;;;;;;;;;5069827;28;20763;-47
2022/06/19 13:27:39;;;;;;;9.27;4.40;;;;;;;;;;5065140;28;24984;-47
2022/06/19 13:30:12;;;;;;;11.13;4.22;;;;;;;;;;5066392;28;21195;-46
2022/06/19 13:32:42;;;;;;;10.70;4.10;;;;;;;;;;5067427;28;21575;-46
2022/06/19 13:35:28;;;;;;;8.98;3.85;;;;;;;;;;5071959;28;24466;-46
2022/06/19 13:37:53;;;;;;;10.60;3.95;;;;;;;;;;5058294;28;24829;-46
2022/06/19 13:40:25;;;;;;;10.30;4.20;;;;;;;;;;5061728;28;25038;-47
2022/06/19 13:42:53;;;;;;;7.25;3.70;;;;;;;;;;5068017;28;24438;-47
2022/06/19 13:45:39;;;;;;;7.50;3.88;;;;;;;;;;5063951;28;24542;-46
2022/06/19 13:48:37;;;;;;;7.47;3.80;;;;;;;;;;5067064;28;24587;-46
2022/06/19 13:51:06;;;;;;;11.90;4.40;;;;;;;;;;5036611;28;24465;-46
2022/06/19 13:53:47;;;;;;;13.63;4.90;;;;;;;;;;5063965;28;20814;-47
2022/06/19 13:56:21;;;;;;;8.00;4.70;;;;;;;;;;5067113;28;21144;-45
2022/06/19 13:58:46;;;;;;;8.93;4.20;;;;;;;;;;5071930;28;24423;-46
2022/06/19 14:01:24;;;;;;;7.40;4.17;;;;;;;;;;5063774;28;24434;-46
2022/06/19 14:07:31;;;;;;;7.47;4.20;;;;;;;;;;4992594;28;24487;-47
2022/06/19 14:10:23;;;;;;;10.02;4.78;;;;;;;;;;5067468;28;20733;-47
2022/06/19 14:13:01;;;;;;;11.00;4.65;;;;;;;;;;5067696;28;24379;-46
2022/06/19 14:15:31;;;;;;;13.70;5.20;;;;;;;;;;5063657;28;25276;-47
2022/06/19 14:18:07;;;;;;;10.07;5.18;;;;;;;;;;5066112;28;24480;-46
2022/06/19 14:20:42;;;;;;;8.90;4.63;;;;;;;;;;5064154;28;24525;-46
2022/06/19 14:23:16;;;;;;;12.27;5.10;;;;;;;;;;5063365;28;20753;-46
2022/06/19 14:25:51;;;;;;;11.43;5.30;;;;;;;;;;5065524;28;25054;-46
2022/06/19 14:28:25;;;;;;;11.00;5.15;;;;;;;;;;5067225;28;24411;-45
2022/06/19 14:30:53;;;;;;;9.93;5.10;;;;;;;;;;5067718;28;24603;-46
2022/06/19 14:33:43;;;;;;;11.35;5.85;;;;;;;;;;5066839;28;24956;-45
2022/06/19 14:36:08;;;;;;;13.07;5.60;;;;;;;;;;5060678;28;24446;-46
2022/06/19 14:38:34;;;;;;;11.15;6.10;;;;;;;;;;5067619;28;24391;-46
2022/06/19 14:41:04;;;;;;;11.25;6.50;;;;;;;;;;5067379;28;24401;-45
2022/06/19 14:43:34;;;;;;;11.50;6.10;;;;;;;;;;5066863;28;20718;-46
2022/06/19 14:46:03;;;;;;;12.45;6.45;;;;;;;;;;5065696;28;24648;-46
2022/06/19 14:48:37;;;;;;;12.60;5.90;;;;;;;;;;5066374;28;20762;-46
2022/06/19 14:51:17;;;;;;;11.90;6.82;;;;;;;;;;5067232;28;24444;-47
2022/06/19 14:53:55;;;;;;;13.02;6.60;;;;;;;;;;5067006;28;24425;-46
2022/06/19 14:56:41;;;;;;;9.48;6.13;;;;;;;;;;5066138;28;20753;-46
2022/06/19 14:59:13;;;;;;;11.20;6.70;;;;;;;;;;5066598;28;24753;-46
2022/06/19 15:01:41;;;;;;;10.98;6.30;;;;;;;;;;5066950;28;24511;-45